createdAt,value
2023-05-24T00:00:13.198Z,119.67
2023-05-24T00:02:43.755Z,120.20
2023-05-24T00:05:11.220Z,119.80
2023-05-24T00:07:38.730Z,120.37
2023-05-24T00:10:07.590Z,120.70
2023-05-24T00:12:34.685Z,119.73
2023-05-24T00:15:02.389Z,119.90
2023-05-24T00:17:30.146Z,119.83
2023-05-24T00:19:57.430Z,120.27
2023-05-24T00:22:25.008Z,119.67
2023-05-24T00:24:52.511Z,120.23
2023-05-24T00:27:19.530Z,119.77
2023-05-24T00:29:46.813Z,119.90
2023-05-24T00:32:13.990Z,119.90
2023-05-24T00:34:41.168Z,119.70
2023-05-24T00:37:08.201Z,118.20
2023-05-24T00:39:35.777Z,119.67
2023-05-24T00:42:03.476Z,119.60
2023-05-24T00:44:31.765Z,119.70
2023-05-24T00:47:00.317Z,120.30
2023-05-24T00:49:27.985Z,119.90
2023-05-24T00:51:55.536Z,118.83
2023-05-24T00:54:22.952Z,119.50
2023-05-24T00:56:51.392Z,120.17
2023-05-24T00:59:18.517Z,118.97
2023-05-24T01:01:46.905Z,119.70
2023-05-24T01:04:14.785Z,120.20
2023-05-24T01:07:23.410Z,119.87
2023-05-24T01:10:17.406Z,120.37
2023-05-24T01:13:17.413Z,119.87
2023-05-24T01:16:12.822Z,119.17
2023-05-24T01:18:47.692Z,119.37
2023-05-24T01:22:02.784Z,120.07
2023-05-24T01:25:14.510Z,120.10
2023-05-24T01:27:44.349Z,120.17
2023-05-24T01:30:12.552Z,119.50
2023-05-24T01:32:40.075Z,120.37
2023-05-24T01:35:07.847Z,119.07
2023-05-24T01:37:36.551Z,119.80
2023-05-24T01:40:06.156Z,119.07
2023-05-24T01:42:59.436Z,120.17
2023-05-24T01:45:59.536Z,120.17
2023-05-24T01:49:13.051Z,120.00
2023-05-24T01:52:06.151Z,118.97
2023-05-24T01:54:45.765Z,120.10
2023-05-24T01:57:13.460Z,119.27
2023-05-24T01:59:43.920Z,119.77
2023-05-24T02:02:16.363Z,120.30
2023-05-24T02:04:43.958Z,119.10
2023-05-24T02:07:11.407Z,118.50
2023-05-24T02:09:38.507Z,119.27
2023-05-24T02:12:08.615Z,120.00
2023-05-24T02:14:37.818Z,118.87
2023-05-24T02:17:05.962Z,119.67
2023-05-24T02:19:34.619Z,119.57
2023-05-24T02:22:02.252Z,120.47
2023-05-24T02:24:30.852Z,120.53
2023-05-24T02:26:57.915Z,120.00
2023-05-24T02:29:25.542Z,119.87
2023-05-24T02:31:56.249Z,119.57
2023-05-24T02:34:24.813Z,120.83
2023-05-24T02:36:54.263Z,120.27
2023-05-24T02:39:21.413Z,120.30
2023-05-24T02:41:48.952Z,119.87
2023-05-24T02:44:16.583Z,121.07
2023-05-24T02:46:43.734Z,120.00
2023-05-24T02:49:10.948Z,118.87
2023-05-24T02:51:38.056Z,120.20
2023-05-24T02:54:05.600Z,119.57
2023-05-24T02:56:33.013Z,120.57
2023-05-24T02:59:00.262Z,120.40
2023-05-24T03:01:29.963Z,120.17
2023-05-24T03:03:59.047Z,121.10
2023-05-24T03:06:26.527Z,120.07
2023-05-24T03:08:54.392Z,120.07
2023-05-24T03:11:22.390Z,120.70
2023-05-24T03:13:50.056Z,120.37
2023-05-24T03:16:17.762Z,120.47
2023-05-24T03:18:50.473Z,121.20
2023-05-24T03:21:20.689Z,119.67
2023-05-24T03:23:48.859Z,121.07
2023-05-24T03:26:25.712Z,120.97
2023-05-24T03:29:01.684Z,121.10
2023-05-24T03:31:41.404Z,118.70
2023-05-24T03:34:15.950Z,120.27
2023-05-24T03:36:46.327Z,120.23
2023-05-24T03:39:17.030Z,119.17
2023-05-24T03:41:56.648Z,119.83
2023-05-24T03:44:24.406Z,119.47
2023-05-24T03:46:51.505Z,121.10
2023-05-24T03:49:18.811Z,120.77
2023-05-24T03:51:46.675Z,120.40
2023-05-24T03:54:13.790Z,121.17
2023-05-24T03:56:42.517Z,119.00
2023-05-24T03:59:09.636Z,120.50
2023-05-24T04:01:36.771Z,120.20
2023-05-24T04:04:04.599Z,118.83
2023-05-24T04:06:36.710Z,119.17
2023-05-24T04:09:05.849Z,120.83
2023-05-24T04:11:32.991Z,119.57
2023-05-24T04:14:11.127Z,119.90
2023-05-24T04:16:58.711Z,120.87
2023-05-24T04:19:55.663Z,118.97
2023-05-24T04:22:40.486Z,118.70
2023-05-24T04:25:46.893Z,120.47
2023-05-24T04:28:51.380Z,119.70
2023-05-24T04:32:01.316Z,118.33
2023-05-24T04:37:49.687Z,120.10
2023-05-24T04:40:37.547Z,119.53
2023-05-24T04:43:09.238Z,119.73
2023-05-24T04:45:40.114Z,119.47
2023-05-24T04:48:29.965Z,118.97
2023-05-24T04:51:06.262Z,119.90
2023-05-24T04:53:40.010Z,119.90
2023-05-24T04:56:22.979Z,119.20
2023-05-24T04:58:53.098Z,120.17
2023-05-24T05:01:30.692Z,119.30
2023-05-24T05:04:04.442Z,119.20
2023-05-24T05:06:40.446Z,118.77
2023-05-24T05:09:29.930Z,119.00
2023-05-24T05:11:57.313Z,119.10
2023-05-24T05:14:24.722Z,119.60
2023-05-24T05:16:52.181Z,119.50
2023-05-24T05:19:22.098Z,119.27
2023-05-24T05:22:20.888Z,119.27
2023-05-24T05:24:54.228Z,120.17
2023-05-24T05:27:21.378Z,120.00
2023-05-24T05:29:48.830Z,118.87
2023-05-24T05:32:27.200Z,119.80
2023-05-24T05:34:57.472Z,120.03
2023-05-24T05:37:33.823Z,119.40
2023-05-24T05:40:01.503Z,120.37
2023-05-24T05:42:29.056Z,120.03
2023-05-24T05:44:57.130Z,119.30
2023-05-24T05:47:24.413Z,120.67
2023-05-24T05:49:51.672Z,120.67
2023-05-24T05:52:18.935Z,120.30
2023-05-24T05:54:46.050Z,119.97
2023-05-24T05:57:16.373Z,120.77
2023-05-24T05:59:44.135Z,119.50
2023-05-24T06:02:12.775Z,121.37
2023-05-24T06:04:40.085Z,120.10
2023-05-24T06:07:07.219Z,120.67
2023-05-24T06:09:34.809Z,120.27
2023-05-24T06:12:02.277Z,119.57
2023-05-24T06:14:31.683Z,119.73
2023-05-24T06:17:04.244Z,119.83
2023-05-24T06:19:32.764Z,119.97
2023-05-24T06:22:00.296Z,119.77
2023-05-24T06:24:34.818Z,120.17
2023-05-24T06:27:07.930Z,119.80
2023-05-24T06:29:43.339Z,119.30
2023-05-24T06:32:11.236Z,119.50
2023-05-24T06:34:38.814Z,120.03
2023-05-24T06:37:06.110Z,119.57
2023-05-24T06:39:33.235Z,119.10
2023-05-24T06:42:00.515Z,118.97
2023-05-24T06:44:34.307Z,119.00
2023-05-24T06:47:02.231Z,119.40
2023-05-24T06:49:29.595Z,119.50
2023-05-24T06:51:57.197Z,119.87
2023-05-24T06:54:25.477Z,117.37
2023-05-24T06:56:55.742Z,119.13
2023-05-24T06:59:23.456Z,119.17
2023-05-24T07:01:57.125Z,119.67
2023-05-24T07:04:25.372Z,119.40
2023-05-24T07:06:53.478Z,119.13
2023-05-24T07:09:21.551Z,119.27
2023-05-24T07:11:48.749Z,118.43
2023-05-24T07:14:16.660Z,119.90
2023-05-24T07:16:44.305Z,119.47
2023-05-24T07:19:13.271Z,119.80
2023-05-24T07:21:55.980Z,119.97
2023-05-24T07:24:28.300Z,119.27
2023-05-24T07:26:57.476Z,119.57
2023-05-24T07:29:25.860Z,118.77
2023-05-24T07:31:56.041Z,118.87
2023-05-24T07:34:27.291Z,118.60
2023-05-24T07:36:55.021Z,118.20
2023-05-24T07:39:23.154Z,118.17
2023-05-24T07:41:50.926Z,118.47
2023-05-24T07:44:19.843Z,118.27
2023-05-24T07:46:47.156Z,118.37
2023-05-24T07:49:14.323Z,118.20
2023-05-24T07:51:41.645Z,118.27
2023-05-24T07:54:09.188Z,118.17
2023-05-24T07:56:36.217Z,117.70
2023-05-24T07:59:04.822Z,117.50
2023-05-24T08:03:39.475Z,117.30
2023-05-24T08:06:07.153Z,117.20
2023-05-24T08:08:37.565Z,117.80
2023-05-24T08:11:04.668Z,117.37
2023-05-24T08:13:31.971Z,117.97
2023-05-24T08:15:59.259Z,117.63
2023-05-24T08:18:26.918Z,117.50
2023-05-24T08:20:54.528Z,117.27
2023-05-24T08:23:22.054Z,117.67
2023-05-24T08:25:49.160Z,118.27
2023-05-24T08:28:16.900Z,117.97
2023-05-24T08:30:44.573Z,117.97
2023-05-24T08:33:12.210Z,117.77
2023-05-24T08:35:40.329Z,117.70
2023-05-24T08:38:08.936Z,118.10
2023-05-24T08:40:36.644Z,118.00
2023-05-24T08:43:03.987Z,118.30
2023-05-24T08:45:33.542Z,118.57
2023-05-24T08:48:02.983Z,118.20
2023-05-24T08:50:32.585Z,118.27
2023-05-24T08:53:04.223Z,117.77
2023-05-24T08:55:33.385Z,117.80
2023-05-24T08:58:01.289Z,118.23
2023-05-24T09:00:28.398Z,118.70
2023-05-24T09:02:58.924Z,118.40
2023-05-24T09:05:27.285Z,118.57
2023-05-24T09:07:58.157Z,118.37
2023-05-24T09:10:35.418Z,118.40
2023-05-24T09:13:10.615Z,118.50
2023-05-24T09:15:38.119Z,118.23
2023-05-24T09:18:05.872Z,118.10
2023-05-24T09:20:33.380Z,118.07
2023-05-24T09:23:03.350Z,118.70
2023-05-24T09:25:31.165Z,118.70
2023-05-24T09:27:58.204Z,118.07
2023-05-24T09:30:25.804Z,118.60
2023-05-24T09:33:01.472Z,118.10
2023-05-24T09:35:29.705Z,118.70
2023-05-24T09:38:00.365Z,118.10
2023-05-24T09:40:29.583Z,118.40
2023-05-24T09:43:09.496Z,117.90
2023-05-24T09:45:47.576Z,117.60
2023-05-24T09:48:17.264Z,117.90
2023-05-24T09:50:47.347Z,117.60
2023-05-24T09:53:21.500Z,117.50
2023-05-24T09:55:48.944Z,117.20
2023-05-24T09:58:17.520Z,117.67
2023-05-24T10:00:44.973Z,117.20
2023-05-24T10:03:13.537Z,117.27
2023-05-24T10:05:48.201Z,116.90
2023-05-24T10:08:18.163Z,116.93
2023-05-24T10:10:46.362Z,116.60
2023-05-24T10:13:15.887Z,116.73
2023-05-24T10:15:44.978Z,116.93
2023-05-24T10:18:13.859Z,117.40
2023-05-24T10:20:42.302Z,116.60
2023-05-24T10:23:16.031Z,117.37
2023-05-24T10:25:53.694Z,117.50
2023-05-24T10:28:22.446Z,117.43
2023-05-24T10:31:05.767Z,117.03
2023-05-24T10:33:37.413Z,117.23
2023-05-24T10:36:10.063Z,117.07
2023-05-24T10:38:41.085Z,117.10
2023-05-24T10:41:09.147Z,116.70
2023-05-24T10:43:38.392Z,116.80
2023-05-24T10:46:10.575Z,117.47
2023-05-24T10:48:42.271Z,117.40
2023-05-24T10:51:40.731Z,117.40
2023-05-24T10:54:16.441Z,117.97
2023-05-24T10:56:52.103Z,117.50
2023-05-24T10:59:39.268Z,117.90
2023-05-24T11:02:14.657Z,118.17
2023-05-24T11:04:49.049Z,118.00
2023-05-24T11:07:19.221Z,118.50
2023-05-24T11:09:57.260Z,119.23
2023-05-24T11:12:38.554Z,119.17
2023-05-24T11:15:10.372Z,119.30
2023-05-24T11:18:09.158Z,119.73
2023-05-24T11:20:36.872Z,119.53
2023-05-24T11:23:06.390Z,119.30
2023-05-24T11:25:36.762Z,119.80
2023-05-24T11:28:09.428Z,119.20
2023-05-24T11:30:54.859Z,119.10
2023-05-24T11:33:24.289Z,119.00
2023-05-24T11:35:54.382Z,119.27
2023-05-24T11:38:24.906Z,118.87
2023-05-24T11:40:52.974Z,118.23
2023-05-24T11:43:21.863Z,118.97
2023-05-24T11:45:51.803Z,118.57
2023-05-24T11:48:20.452Z,118.57
2023-05-24T11:50:50.217Z,118.17
2023-05-24T11:53:23.195Z,117.53
2023-05-24T11:55:51.371Z,117.37
2023-05-24T11:58:26.048Z,117.40
2023-05-24T12:00:53.367Z,118.27
2023-05-24T12:03:21.950Z,117.60
2023-05-24T12:05:49.385Z,117.70
2023-05-24T12:08:17.237Z,117.30
2023-05-24T12:10:44.901Z,117.30
2023-05-24T12:13:25.421Z,117.67
2023-05-24T12:15:56.813Z,117.00
2023-05-24T12:18:26.669Z,116.93
2023-05-24T12:20:55.016Z,117.00
2023-05-24T12:23:31.961Z,116.97
2023-05-24T12:26:03.734Z,117.47
2023-05-24T12:28:39.211Z,117.60
2023-05-24T12:31:07.175Z,117.37
2023-05-24T12:33:34.437Z,117.67
2023-05-24T12:36:02.255Z,117.73
2023-05-24T12:38:31.562Z,117.20
2023-05-24T12:41:12.465Z,117.27
2023-05-24T12:43:44.277Z,116.40
2023-05-24T12:46:12.852Z,117.07
2023-05-24T12:48:40.435Z,116.90
2023-05-24T12:51:08.653Z,117.77
2023-05-24T12:53:36.512Z,117.27
2023-05-24T12:56:04.120Z,117.17
2023-05-24T12:58:32.583Z,117.20
2023-05-24T13:01:00.306Z,117.00
2023-05-24T13:03:28.208Z,116.70
2023-05-24T13:05:56.427Z,116.47
2023-05-24T13:08:24.222Z,116.97
2023-05-24T13:10:51.294Z,116.60
2023-05-24T13:13:18.465Z,117.70
2023-05-24T13:15:46.030Z,117.10
2023-05-24T13:18:13.255Z,116.87
2023-05-24T13:20:40.708Z,116.67
2023-05-24T13:23:08.610Z,116.97
2023-05-24T13:25:36.135Z,116.43
2023-05-24T13:28:04.090Z,116.47
2023-05-24T13:30:31.487Z,116.20
2023-05-24T13:32:59.465Z,116.50
2023-05-24T13:35:26.870Z,116.77
2023-05-24T13:37:55.728Z,116.60
2023-05-24T13:40:28.122Z,116.17
2023-05-24T13:42:57.680Z,116.87
2023-05-24T13:45:27.172Z,117.23
2023-05-24T13:47:58.364Z,116.70
2023-05-24T13:50:28.607Z,117.07
2023-05-24T13:52:59.679Z,117.27
2023-05-24T13:55:32.289Z,117.30
2023-05-24T13:58:01.664Z,117.33
2023-05-24T14:00:29.480Z,116.37
2023-05-24T14:02:58.088Z,116.27
2023-05-24T14:05:28.048Z,117.47
2023-05-24T14:08:00.272Z,117.47
2023-05-24T14:10:27.713Z,117.10
2023-05-24T14:13:12.875Z,116.97
2023-05-24T14:15:44.792Z,116.93
2023-05-24T14:18:14.131Z,116.70
2023-05-24T14:20:41.566Z,117.10
2023-05-24T14:23:09.801Z,117.00
2023-05-24T14:25:37.080Z,116.80
2023-05-24T14:28:04.235Z,117.10
2023-05-24T14:30:32.231Z,117.30
2023-05-24T14:33:02.814Z,116.50
2023-05-24T14:35:30.361Z,117.30
2023-05-24T14:37:57.696Z,117.23
2023-05-24T14:40:25.785Z,117.00
2023-05-24T14:42:52.989Z,116.90
2023-05-24T14:45:20.506Z,117.87
2023-05-24T14:47:47.644Z,117.70
2023-05-24T14:50:17.882Z,118.07
2023-05-24T14:52:45.083Z,116.67
2023-05-24T14:55:14.433Z,117.50
2023-05-24T14:57:41.847Z,117.13
2023-05-24T15:00:10.707Z,117.60
2023-05-24T15:02:38.286Z,116.73
2023-05-24T15:05:06.883Z,117.70
2023-05-24T15:07:34.087Z,116.80
2023-05-24T15:10:01.537Z,116.40
2023-05-24T15:12:28.658Z,116.33
2023-05-24T15:14:55.806Z,116.67
2023-05-24T15:17:23.022Z,115.53
2023-05-24T15:19:50.242Z,116.30
2023-05-24T15:22:17.982Z,115.37
2023-05-24T15:24:45.117Z,116.10
2023-05-24T15:27:12.328Z,115.57
2023-05-24T15:29:40.047Z,115.47
2023-05-24T15:32:07.515Z,115.57
2023-05-24T15:34:35.315Z,115.47
2023-05-24T15:37:02.435Z,115.57
2023-05-24T15:39:29.471Z,115.00
2023-05-24T15:41:56.915Z,115.47
2023-05-24T15:44:24.436Z,115.50
2023-05-24T15:46:51.954Z,115.97
2023-05-24T15:49:19.121Z,115.97
2023-05-24T15:52:03.807Z,116.10
2023-05-24T15:54:32.029Z,116.33
2023-05-24T15:57:01.836Z,116.37
2023-05-24T15:59:29.593Z,116.20
2023-05-24T16:01:56.820Z,116.20
2023-05-24T16:04:24.383Z,116.47
2023-05-24T16:06:51.905Z,116.37
2023-05-24T16:09:18.956Z,116.30
2023-05-24T16:11:47.613Z,116.57
2023-05-24T16:14:16.486Z,116.77
2023-05-24T16:16:44.931Z,116.37
2023-05-24T16:19:12.290Z,116.67
2023-05-24T16:21:39.481Z,116.30
2023-05-24T16:24:06.780Z,116.73
2023-05-24T16:26:34.042Z,116.53
2023-05-24T16:29:01.853Z,116.67
2023-05-24T16:31:31.377Z,117.07
2023-05-24T16:34:01.649Z,117.30
2023-05-24T16:36:29.533Z,116.67
2023-05-24T16:38:56.572Z,117.40
2023-05-24T16:41:24.180Z,117.60
2023-05-24T16:43:51.269Z,117.17
2023-05-24T16:46:19.125Z,118.07
2023-05-24T16:48:46.311Z,117.70
2023-05-24T16:51:13.944Z,118.67
2023-05-24T16:53:41.405Z,118.50
2023-05-24T16:56:08.956Z,118.00
2023-05-24T16:58:37.168Z,118.50
2023-05-24T17:01:04.309Z,118.77
2023-05-24T17:03:32.675Z,118.83
2023-05-24T17:06:03.236Z,118.97
2023-05-24T17:08:35.942Z,118.50
2023-05-24T17:11:04.575Z,118.60
2023-05-24T17:13:33.197Z,118.40
2023-05-24T17:16:03.448Z,118.77
2023-05-24T17:18:31.382Z,117.97
2023-05-24T17:21:04.448Z,118.60
2023-05-24T17:23:39.661Z,118.67
2023-05-24T17:26:11.134Z,118.60
2023-05-24T17:28:38.242Z,118.87
2023-05-24T17:31:09.325Z,118.50
2023-05-24T17:33:36.473Z,118.20
2023-05-24T17:36:05.999Z,118.30
2023-05-24T17:38:33.844Z,118.77
2023-05-24T17:41:01.381Z,118.73
2023-05-24T17:43:31.798Z,118.23
2023-05-24T17:46:06.563Z,117.90
2023-05-24T17:48:37.025Z,118.87
2023-05-24T17:51:08.924Z,118.10
2023-05-24T17:53:38.323Z,118.50
2023-05-24T17:56:07.624Z,118.23
2023-05-24T17:58:38.052Z,118.60
2023-05-24T18:01:11.843Z,118.77
2023-05-24T18:03:58.153Z,118.30
2023-05-24T18:06:25.423Z,118.90
2023-05-24T18:08:52.570Z,118.60
2023-05-24T18:11:19.698Z,118.47
2023-05-24T18:13:48.413Z,118.67
2023-05-24T18:16:23.609Z,118.80
2023-05-24T18:18:50.838Z,119.20
2023-05-24T18:21:17.990Z,119.30
2023-05-24T18:23:45.049Z,119.10
2023-05-24T18:26:12.973Z,118.90
2023-05-24T18:28:41.842Z,119.40
2023-05-24T18:31:16.214Z,119.40
2023-05-24T18:33:43.821Z,119.90
2023-05-24T18:36:12.481Z,119.50
2023-05-24T18:38:40.161Z,119.73
2023-05-24T18:41:11.914Z,119.60
2023-05-24T18:43:39.908Z,119.37
2023-05-24T18:46:07.552Z,120.00
2023-05-24T18:48:35.143Z,119.30
2023-05-24T18:51:02.929Z,120.20
2023-05-24T18:53:30.224Z,119.87
2023-05-24T18:55:57.832Z,120.07
2023-05-24T18:58:24.970Z,119.50
2023-05-24T19:00:52.467Z,119.83
2023-05-24T19:03:22.676Z,120.10
2023-05-24T19:05:50.079Z,120.30
2023-05-24T19:08:18.342Z,120.30
2023-05-24T19:10:45.971Z,119.57
2023-05-24T19:13:12.971Z,120.67
2023-05-24T19:15:39.982Z,121.07
2023-05-24T19:18:07.647Z,120.17
2023-05-24T19:20:34.936Z,119.57
2023-05-24T19:23:02.493Z,119.07
2023-05-24T19:25:31.129Z,119.83
2023-05-24T19:28:00.359Z,120.07
2023-05-24T19:30:28.384Z,119.97
2023-05-24T19:32:56.754Z,120.47
2023-05-24T19:35:24.494Z,121.47
2023-05-24T19:37:53.172Z,119.90
2023-05-24T19:40:20.813Z,120.67
2023-05-24T19:42:47.885Z,119.23
2023-05-24T19:45:16.296Z,119.60
2023-05-24T19:47:45.408Z,119.83
2023-05-24T19:50:12.721Z,121.20
2023-05-24T19:52:39.736Z,121.10
2023-05-24T19:55:08.181Z,120.87
2023-05-24T19:57:35.643Z,120.87
2023-05-24T20:00:04.764Z,121.60
2023-05-24T20:02:38.510Z,120.80
2023-05-24T20:05:06.882Z,121.37
2023-05-24T20:07:34.387Z,119.03
2023-05-24T20:10:01.971Z,120.47
2023-05-24T20:12:30.711Z,120.50
2023-05-24T20:14:57.756Z,120.70
2023-05-24T20:17:24.758Z,118.77
2023-05-24T20:19:52.543Z,120.50
2023-05-24T20:22:20.823Z,121.03
2023-05-24T20:24:48.065Z,121.60
2023-05-24T20:27:15.213Z,120.80
2023-05-24T20:29:43.451Z,120.57
2023-05-24T20:32:10.705Z,121.00
2023-05-24T20:34:38.196Z,120.90
2023-05-24T20:37:06.390Z,120.90
2023-05-24T20:39:33.504Z,121.00
2023-05-24T20:42:01.020Z,121.57
2023-05-24T20:44:28.083Z,120.70
2023-05-24T20:46:55.138Z,121.10
2023-05-24T20:49:22.218Z,121.50
2023-05-24T20:51:49.308Z,120.30
2023-05-24T20:54:16.815Z,121.00
2023-05-24T20:56:43.883Z,119.83
2023-05-24T20:59:11.042Z,120.80
2023-05-24T21:01:38.135Z,120.80
2023-05-24T21:04:05.238Z,120.30
2023-05-24T21:06:34.174Z,120.50
2023-05-24T21:09:01.727Z,120.50
2023-05-24T21:11:29.466Z,119.77
2023-05-24T21:13:56.696Z,120.80
2023-05-24T21:16:25.130Z,120.50
2023-05-24T21:18:53.106Z,120.60
2023-05-24T21:21:20.342Z,119.90
2023-05-24T21:23:47.970Z,119.50
2023-05-24T21:26:15.285Z,120.17
2023-05-24T21:28:42.367Z,119.47
2023-05-24T21:31:09.857Z,121.17
2023-05-24T21:33:39.467Z,120.17
2023-05-24T21:36:07.175Z,119.17
2023-05-24T21:38:34.235Z,121.37
2023-05-24T21:41:01.271Z,119.87
2023-05-24T21:43:28.375Z,120.30
2023-05-24T21:45:55.595Z,119.87
2023-05-24T21:48:22.755Z,119.70
2023-05-24T21:50:49.795Z,119.37
2023-05-24T21:53:16.928Z,120.67
2023-05-24T21:55:44.618Z,120.87
2023-05-24T21:58:11.829Z,121.10
2023-05-24T22:00:39.771Z,119.47
2023-05-24T22:03:06.987Z,120.20
2023-05-24T22:05:34.584Z,118.97
2023-05-24T22:08:02.476Z,119.90
2023-05-24T22:10:30.569Z,120.00
2023-05-24T22:12:57.700Z,120.47
2023-05-24T22:15:26.382Z,120.67
2023-05-24T22:17:58.071Z,120.10
2023-05-24T22:20:27.387Z,118.20
2023-05-24T22:22:54.517Z,119.37
2023-05-24T22:25:21.973Z,120.40
2023-05-24T22:27:49.918Z,119.67
2023-05-24T22:30:18.017Z,119.90
2023-05-24T22:32:45.560Z,120.03
2023-05-24T22:35:12.668Z,119.20
2023-05-24T22:37:39.811Z,118.13
2023-05-24T22:40:07.988Z,118.77
2023-05-24T22:42:35.261Z,120.20
2023-05-24T22:45:02.302Z,120.00
2023-05-24T22:47:33.232Z,118.87
2023-05-24T22:50:01.996Z,119.07
2023-05-24T22:52:33.637Z,118.37
2023-05-24T22:55:02.294Z,119.97
2023-05-24T22:57:29.869Z,120.60
2023-05-24T22:59:57.027Z,119.73
2023-05-24T23:02:24.571Z,119.50
2023-05-24T23:04:53.654Z,119.90
2023-05-24T23:07:21.634Z,119.60
2023-05-24T23:09:48.894Z,119.90
2023-05-24T23:12:18.219Z,119.97
2023-05-24T23:14:46.394Z,120.40
2023-05-24T23:17:13.868Z,120.27
2023-05-24T23:19:42.748Z,119.90
2023-05-24T23:22:18.276Z,119.70
2023-05-24T23:24:49.597Z,120.70
2023-05-24T23:27:17.195Z,120.10
2023-05-24T23:29:44.527Z,118.00
2023-05-24T23:32:12.121Z,119.57
2023-05-24T23:34:39.589Z,119.00
2023-05-24T23:37:07.658Z,119.70
2023-05-24T23:39:34.853Z,119.97
2023-05-24T23:42:02.452Z,120.20
2023-05-24T23:44:30.385Z,120.37
2023-05-24T23:46:58.138Z,119.40
2023-05-24T23:49:26.003Z,118.50
2023-05-24T23:51:53.143Z,118.77
2023-05-24T23:54:20.286Z,120.30
2023-05-24T23:56:48.421Z,119.77
2023-05-24T23:59:17.281Z,120.07
